K.P. Christians Land Sermersua

KL  EN  DA
ASIAQ
Weather Now GREENLAND SURVEY
Updated [WGT/WGST] Temperature [°C] Wind [m/s] Air pressure [hPa] Relative humidity [%] Precipitation [mm]
Present Wind chill Speed Max
27.09 02:00-6,5-14,77,8 ⇓n/a98269n/a
27.09 01:00-6,3-14,47,8 ⇓n/a98270n/a
27.09 00:00-5,9-13,97,7 ⇙n/a98170n/a
26.09 23:00-6,1-14,07,4 ⇓n/a98170n/a
26.09 22:00-6,3-14,27,5 ⇙n/a98170n/a
26.09 21:00-7,1-15,78,5 ⇙n/a98070n/a
26.09 20:00-7,1-15,88,4 ⇙n/a98070n/a
26.09 19:00-7,8-16,78,6 ⇓n/a98070n/a
26.09 18:00-7,9-17,19,3 ⇓n/a97969n/a
26.09 17:00-7,5-16,48,9 ⇓n/a97970n/a
26.09 16:00-7,1-15,78,4 ⇙n/a97971n/a
26.09 15:00-6,7-15,38,7 ⇓n/a97871n/a
26.09 14:00-6,7-12,23,7 ⇐n/a97972n/a
26.09 13:00-6,6-12,74,3 ⇙n/a97969n/a
26.09 12:00-7,4-14,75,8 ⇓n/a97967n/a
26.09 11:00-8,1-15,96,4 ⇓n/a97967n/a
26.09 10:00-7,9-15,45,9 ⇓n/a97968n/a
26.09 09:00-7,1-15,17,1 ⇙n/a97869n/a
26.09 08:00-7,0-16,09,2 ⇓n/a97771n/a
26.09 07:00-6,7-15,48,8 ⇓n/a97769n/a
26.09 06:00-6,6-15,28,6 ⇙n/a97768n/a
26.09 05:00-6,8-15,99,6 ⇓n/a97767n/a
26.09 04:00-7,1-16,29,4 ⇓n/a97664n/a
26.09 03:00-7,6-16,99,5 ⇓n/a97665n/a
26.09 02:00-8,2-17,59,2 ⇓n/a97665n/a
Position: (79.9108,-24.0828)

[Back]